createdAt,value
2022-08-02T00:00:33.913Z,21.50
2022-08-02T00:03:00.883Z,21.50
2022-08-02T00:05:28.004Z,21.50
2022-08-02T00:07:55.006Z,21.60
2022-08-02T00:10:21.837Z,21.60
2022-08-02T00:12:48.662Z,21.40
2022-08-02T00:15:16.340Z,21.00
2022-08-02T00:17:47.300Z,21.00
2022-08-02T00:20:16.257Z,21.30
2022-08-02T00:22:43.628Z,21.60
2022-08-02T00:25:10.628Z,21.60
2022-08-02T00:27:37.651Z,21.30
2022-08-02T00:30:05.341Z,21.10
2022-08-02T00:32:32.111Z,21.00
2022-08-02T00:34:58.922Z,21.10
2022-08-02T00:37:25.775Z,21.20
2022-08-02T00:39:52.677Z,21.20
2022-08-02T00:42:19.534Z,21.10
2022-08-02T00:44:46.436Z,20.90
2022-08-02T00:47:15.023Z,21.10
2022-08-02T00:49:47.287Z,20.90
2022-08-02T00:52:14.694Z,20.90
2022-08-02T00:54:42.072Z,20.70
2022-08-02T00:57:08.966Z,20.60
2022-08-02T00:59:35.944Z,20.50
2022-08-02T01:02:02.958Z,20.80
2022-08-02T01:04:31.809Z,21.00
2022-08-02T01:07:12.122Z,20.90
2022-08-02T01:09:41.014Z,20.90
2022-08-02T01:12:08.407Z,20.70
2022-08-02T01:14:35.613Z,20.60
2022-08-02T01:17:29.056Z,20.70
2022-08-02T01:20:17.859Z,20.70
2022-08-02T01:23:04.032Z,20.50
2022-08-02T01:25:49.162Z,20.60
2022-08-02T01:28:37.218Z,20.70
2022-08-02T01:31:21.105Z,20.60
2022-08-02T01:34:33.170Z,20.50
2022-08-02T01:37:16.216Z,20.40
2022-08-02T01:39:45.860Z,20.40
2022-08-02T01:42:14.240Z,20.70
2022-08-02T01:44:43.566Z,20.80
2022-08-02T01:47:17.874Z,20.90
2022-08-02T01:49:47.988Z,20.80
2022-08-02T01:52:25.512Z,20.80
2022-08-02T01:55:09.915Z,20.60
2022-08-02T01:57:55.542Z,20.30
2022-08-02T02:00:25.386Z,20.30
2022-08-02T02:02:55.537Z,20.30
2022-08-02T02:05:25.776Z,20.30
2022-08-02T02:07:58.911Z,20.40
2022-08-02T02:10:29.966Z,20.40
2022-08-02T02:13:01.486Z,20.10
2022-08-02T02:15:29.889Z,19.80
2022-08-02T02:18:12.711Z,19.90
2022-08-02T02:20:42.367Z,19.70
2022-08-02T02:23:09.803Z,19.60
2022-08-02T02:25:41.878Z,19.70
2022-08-02T02:28:19.684Z,19.80
2022-08-02T02:30:51.044Z,19.90
2022-08-02T02:33:19.939Z,20.30
2022-08-02T02:35:50.418Z,20.50
2022-08-02T02:38:20.487Z,20.50
2022-08-02T02:40:49.013Z,20.20
2022-08-02T02:43:17.703Z,19.90
2022-08-02T02:45:46.137Z,19.80
2022-08-02T02:48:15.213Z,19.60
2022-08-02T02:50:43.977Z,19.50
2022-08-02T02:53:13.416Z,19.40
2022-08-02T02:55:41.840Z,19.30
2022-08-02T02:58:29.241Z,19.60
2022-08-02T03:01:15.320Z,19.70
2022-08-02T03:03:44.412Z,19.50
2022-08-02T03:06:15.093Z,19.60
2022-08-02T03:08:43.553Z,19.40
2022-08-02T03:11:11.244Z,19.40
2022-08-02T03:13:39.118Z,19.40
2022-08-02T03:16:06.620Z,19.40
2022-08-02T03:18:36.194Z,19.50
2022-08-02T03:21:06.657Z,19.60
2022-08-02T03:23:33.797Z,19.50
2022-08-02T03:26:01.715Z,19.10
2022-08-02T03:28:28.849Z,18.80
2022-08-02T03:30:55.693Z,18.70
2022-08-02T03:33:24.208Z,18.90
2022-08-02T03:35:53.595Z,18.90
2022-08-02T03:38:23.067Z,18.70
2022-08-02T03:40:56.200Z,19.00
2022-08-02T03:43:24.143Z,19.20
2022-08-02T03:45:57.008Z,19.30
2022-08-02T03:48:34.918Z,19.20
2022-08-02T03:51:02.749Z,19.30
2022-08-02T03:53:30.200Z,19.20
2022-08-02T03:55:58.244Z,19.10
2022-08-02T03:58:25.605Z,19.10
2022-08-02T04:00:54.585Z,19.30
2022-08-02T04:03:21.576Z,19.40
2022-08-02T04:06:03.186Z,19.20
2022-08-02T04:08:35.571Z,19.40
2022-08-02T04:11:23.366Z,19.20
2022-08-02T04:13:50.488Z,19.10
2022-08-02T04:16:38.338Z,19.20
2022-08-02T04:19:07.501Z,18.90
2022-08-02T04:21:41.415Z,18.80
2022-08-02T04:24:18.666Z,18.80
2022-08-02T04:26:48.045Z,19.00
2022-08-02T04:29:18.458Z,18.80
2022-08-02T04:31:46.047Z,18.70
2022-08-02T04:34:15.528Z,18.60
2022-08-02T04:36:43.410Z,18.70
2022-08-02T04:39:10.712Z,18.70
2022-08-02T04:41:44.252Z,18.70
2022-08-02T04:44:12.353Z,18.30
2022-08-02T04:46:40.288Z,18.30
2022-08-02T04:49:07.664Z,18.60
2022-08-02T04:51:38.025Z,18.50
2022-08-02T04:54:09.066Z,18.20
2022-08-02T04:56:39.051Z,18.00
2022-08-02T04:59:06.200Z,18.20
2022-08-02T05:01:33.063Z,18.10
2022-08-02T05:04:00.037Z,17.90
2022-08-02T05:06:27.283Z,18.00
2022-08-02T05:08:54.289Z,18.10
2022-08-02T05:11:30.034Z,18.30
2022-08-02T05:14:03.510Z,18.30
2022-08-02T05:16:31.564Z,18.50
2022-08-02T05:18:59.740Z,18.50
2022-08-02T05:21:26.616Z,18.50
2022-08-02T05:23:53.381Z,18.40
2022-08-02T05:26:20.278Z,18.50
2022-08-02T05:28:47.205Z,18.40
2022-08-02T05:31:14.100Z,18.30
2022-08-02T05:33:41.083Z,18.50
2022-08-02T05:36:09.580Z,18.90
2022-08-02T05:38:37.878Z,18.80
2022-08-02T05:41:06.037Z,18.60
2022-08-02T05:43:32.959Z,18.60
2022-08-02T05:46:00.513Z,18.60
2022-08-02T05:48:31.473Z,18.70
2022-08-02T05:51:09.033Z,18.80
2022-08-02T05:53:50.945Z,18.80
2022-08-02T05:56:47.045Z,18.90
2022-08-02T05:59:40.181Z,19.10
2022-08-02T06:02:30.000Z,19.00
2022-08-02T06:05:05.352Z,19.00
2022-08-02T06:07:36.506Z,19.00
2022-08-02T06:10:05.416Z,18.80
2022-08-02T06:12:33.972Z,18.60
2022-08-02T06:15:04.085Z,18.70
2022-08-02T06:17:32.118Z,19.00
2022-08-02T06:20:00.738Z,19.20
2022-08-02T06:22:36.085Z,19.40
2022-08-02T06:25:05.031Z,19.40
2022-08-02T06:27:33.156Z,19.50
2022-08-02T06:30:02.955Z,19.90
2022-08-02T06:32:30.424Z,19.90
2022-08-02T06:34:57.434Z,19.80
2022-08-02T06:37:24.488Z,19.80
2022-08-02T06:39:58.272Z,19.60
2022-08-02T06:42:38.614Z,19.80
2022-08-02T06:45:05.807Z,20.00
2022-08-02T06:47:34.123Z,20.00
2022-08-02T06:50:00.946Z,20.10
2022-08-02T06:52:31.247Z,20.20
2022-08-02T06:55:00.727Z,20.50
2022-08-02T06:57:28.738Z,20.90
2022-08-02T06:59:55.843Z,20.90
2022-08-02T07:02:23.047Z,20.90
2022-08-02T07:04:50.335Z,20.80
2022-08-02T07:07:17.320Z,20.50
2022-08-02T07:09:56.717Z,20.50
2022-08-02T07:12:30.730Z,20.80
2022-08-02T07:15:02.343Z,20.80
2022-08-02T07:17:30.162Z,20.90
2022-08-02T07:19:57.785Z,20.90
2022-08-02T07:22:27.465Z,20.90
2022-08-02T07:24:56.830Z,21.00
2022-08-02T07:27:24.335Z,21.20
2022-08-02T07:29:51.728Z,21.30
2022-08-02T07:32:21.120Z,21.40
2022-08-02T07:34:51.201Z,21.30
2022-08-02T07:37:53.417Z,21.40
2022-08-02T07:40:15.314Z,21.20
2022-08-02T07:42:54.519Z,21.30
2022-08-02T07:45:24.888Z,21.50
2022-08-02T07:47:52.588Z,21.70
2022-08-02T07:50:21.012Z,21.90
2022-08-02T07:52:48.689Z,22.10
2022-08-02T07:55:17.937Z,22.30
2022-08-02T07:57:46.663Z,22.30
2022-08-02T08:00:16.288Z,22.50
2022-08-02T08:02:43.930Z,22.40
2022-08-02T08:05:12.113Z,22.40
2022-08-02T08:07:39.326Z,22.60
2022-08-02T08:10:07.067Z,22.80
2022-08-02T08:12:34.226Z,22.80
2022-08-02T08:15:01.102Z,22.90
2022-08-02T08:17:27.978Z,22.90
2022-08-02T08:19:54.983Z,22.80
2022-08-02T08:22:22.675Z,23.00
2022-08-02T08:24:50.353Z,23.20
2022-08-02T08:27:18.515Z,23.30
2022-08-02T08:29:46.070Z,23.40
2022-08-02T08:32:18.229Z,23.40
2022-08-02T08:34:49.385Z,23.30
2022-08-02T08:37:17.984Z,23.40
2022-08-02T08:39:56.343Z,23.60
2022-08-02T08:42:24.776Z,23.60
2022-08-02T08:44:52.179Z,23.80
2022-08-02T08:47:21.124Z,24.10
2022-08-02T08:49:52.578Z,24.40
2022-08-02T08:52:22.766Z,24.40
2022-08-02T08:54:50.663Z,24.60
2022-08-02T08:57:20.352Z,25.00
2022-08-02T08:59:47.460Z,25.10
2022-08-02T09:02:20.531Z,24.80
2022-08-02T09:04:54.991Z,24.60
2022-08-02T09:07:23.177Z,24.70
2022-08-02T09:09:50.388Z,24.50
2022-08-02T09:12:18.557Z,24.80
2022-08-02T09:14:46.635Z,25.00
2022-08-02T09:17:18.306Z,24.70
2022-08-02T09:19:45.869Z,25.00
2022-08-02T09:22:15.389Z,25.00
2022-08-02T09:24:47.155Z,24.90
2022-08-02T09:27:22.678Z,25.30
2022-08-02T09:30:13.237Z,25.70
2022-08-02T09:32:50.013Z,25.20
2022-08-02T09:36:05.979Z,25.80
2022-08-02T09:38:21.099Z,26.30
2022-08-02T09:40:48.133Z,26.00
2022-08-02T09:43:17.264Z,26.30
2022-08-02T09:45:45.008Z,26.20
2022-08-02T09:48:12.724Z,25.90
2022-08-02T09:50:41.733Z,26.20
2022-08-02T09:53:15.794Z,26.40
2022-08-02T09:55:43.155Z,26.30
2022-08-02T09:58:20.797Z,26.20
2022-08-02T10:01:01.233Z,26.20
2022-08-02T10:03:35.122Z,26.20
2022-08-02T10:06:04.381Z,26.30
2022-08-02T10:08:33.831Z,26.40
2022-08-02T10:11:01.856Z,26.30
2022-08-02T10:13:33.346Z,26.70
2022-08-02T10:16:02.495Z,26.40
2022-08-02T10:18:38.916Z,26.40
2022-08-02T10:21:12.490Z,26.30
2022-08-02T10:23:42.692Z,26.70
2022-08-02T10:26:13.102Z,26.90
2022-08-02T10:28:39.976Z,26.50
2022-08-02T10:31:08.051Z,26.70
2022-08-02T10:33:37.568Z,26.60
2022-08-02T10:36:07.799Z,26.50
2022-08-02T10:38:36.153Z,26.70
2022-08-02T10:41:03.586Z,26.80
2022-08-02T10:43:36.173Z,27.10
2022-08-02T10:46:33.426Z,27.40
2022-08-02T10:49:38.098Z,27.00
2022-08-02T10:52:01.921Z,27.20
2022-08-02T10:54:31.589Z,27.80
2022-08-02T10:57:01.448Z,28.20
2022-08-02T10:59:32.890Z,28.00
2022-08-02T11:02:05.839Z,28.20
2022-08-02T11:04:53.532Z,28.60
2022-08-02T11:07:34.506Z,28.90
2022-08-02T11:10:30.594Z,28.80
2022-08-02T11:13:03.876Z,28.70
2022-08-02T11:15:46.976Z,29.00
2022-08-02T11:18:13.875Z,29.10
2022-08-02T11:20:40.767Z,28.90
2022-08-02T11:23:44.861Z,29.00
2022-08-02T11:26:31.260Z,29.00
2022-08-02T11:29:00.760Z,29.00
2022-08-02T11:31:28.446Z,29.10
2022-08-02T11:33:56.021Z,29.20
2022-08-02T11:36:23.088Z,29.40
2022-08-02T11:38:50.121Z,28.70
2022-08-02T11:41:46.219Z,28.30
2022-08-02T11:44:09.446Z,28.80
2022-08-02T11:46:37.286Z,28.60
2022-08-02T11:49:18.395Z,28.60
2022-08-02T11:52:01.172Z,29.30
2022-08-02T11:54:35.476Z,29.90
2022-08-02T11:57:21.581Z,30.10
2022-08-02T11:59:54.429Z,30.80
2022-08-02T12:02:24.573Z,31.00
2022-08-02T12:04:59.751Z,30.40
2022-08-02T12:07:36.566Z,30.50
2022-08-02T12:10:09.769Z,31.10
2022-08-02T12:12:59.562Z,31.80
2022-08-02T12:15:47.250Z,31.60
2022-08-02T12:18:35.679Z,31.80
2022-08-02T12:21:03.918Z,31.00
2022-08-02T12:23:30.809Z,31.10
2022-08-02T12:26:16.534Z,31.10
2022-08-02T12:28:44.033Z,31.40
2022-08-02T12:31:15.626Z,31.80
2022-08-02T12:33:54.787Z,31.80
2022-08-02T12:36:27.964Z,31.30
2022-08-02T12:39:01.118Z,31.20
2022-08-02T12:41:30.974Z,31.00
2022-08-02T12:44:00.560Z,31.20
2022-08-02T12:46:27.874Z,31.50
2022-08-02T12:49:17.890Z,31.70
2022-08-02T12:51:58.999Z,31.70
2022-08-02T12:54:39.438Z,32.10
2022-08-02T12:57:14.369Z,31.80
2022-08-02T12:59:42.651Z,32.20
2022-08-02T13:02:12.292Z,32.20
2022-08-02T13:04:39.758Z,32.60
2022-08-02T13:07:06.682Z,32.80
2022-08-02T13:09:37.999Z,33.00
2022-08-02T13:12:06.567Z,32.70
2022-08-02T13:14:39.934Z,32.70
2022-08-02T13:17:09.739Z,32.90
2022-08-02T13:19:37.448Z,32.90
2022-08-02T13:22:04.516Z,33.50
2022-08-02T13:24:40.495Z,33.10
2022-08-02T13:27:21.447Z,33.10
2022-08-02T13:29:50.603Z,32.70
2022-08-02T13:32:17.799Z,33.00
2022-08-02T13:34:45.126Z,33.10
2022-08-02T13:37:12.625Z,33.60
2022-08-02T13:39:39.495Z,33.90
2022-08-02T13:42:07.243Z,34.00
2022-08-02T13:44:34.891Z,33.60
2022-08-02T13:47:02.899Z,33.30
2022-08-02T13:49:50.219Z,33.90
2022-08-02T13:52:17.490Z,34.10
2022-08-02T13:54:44.436Z,33.00
2022-08-02T13:57:11.273Z,32.20
2022-08-02T13:59:57.624Z,32.60
2022-08-02T14:02:26.699Z,33.00
2022-08-02T14:04:53.818Z,33.10
2022-08-02T14:07:21.217Z,33.60
2022-08-02T14:09:48.048Z,33.50
2022-08-02T14:12:15.518Z,33.50
2022-08-02T14:14:42.758Z,33.70
2022-08-02T14:17:11.192Z,33.00
2022-08-02T14:19:38.309Z,32.80
2022-08-02T14:22:10.852Z,32.80
2022-08-02T14:24:39.830Z,33.10
2022-08-02T14:27:07.172Z,32.90
2022-08-02T14:29:34.408Z,33.00
2022-08-02T14:32:01.463Z,33.00
2022-08-02T14:34:29.096Z,32.80
2022-08-02T14:36:56.883Z,32.40
2022-08-02T14:39:23.792Z,31.80
2022-08-02T14:41:59.622Z,31.30
2022-08-02T14:44:29.096Z,31.20
2022-08-02T14:46:56.793Z,32.20
2022-08-02T14:49:25.768Z,32.80
2022-08-02T14:51:54.380Z,33.00
2022-08-02T14:54:30.413Z,32.50
2022-08-02T14:57:03.420Z,32.70
2022-08-02T14:59:31.177Z,32.70
2022-08-02T15:01:59.084Z,32.50
2022-08-02T15:04:26.498Z,32.20
2022-08-02T15:06:54.236Z,31.90
2022-08-02T15:09:22.254Z,32.40
2022-08-02T15:11:49.754Z,32.60
2022-08-02T15:14:22.175Z,32.60
2022-08-02T15:16:58.382Z,32.70
2022-08-02T15:19:55.999Z,33.00
2022-08-02T15:22:19.299Z,33.70
2022-08-02T15:24:47.458Z,33.70
2022-08-02T15:27:15.083Z,33.90
2022-08-02T15:29:44.239Z,33.60
2022-08-02T15:32:12.016Z,33.40
2022-08-02T15:34:39.897Z,33.60
2022-08-02T15:37:06.819Z,33.40
2022-08-02T15:39:33.864Z,33.00
2022-08-02T15:42:01.041Z,32.70
2022-08-02T15:44:28.478Z,32.50
2022-08-02T15:46:55.774Z,32.80
2022-08-02T15:49:24.075Z,32.90
2022-08-02T15:51:54.870Z,32.90
2022-08-02T15:54:22.065Z,32.40
2022-08-02T15:56:49.619Z,32.50
2022-08-02T15:59:17.112Z,32.80
2022-08-02T16:01:47.739Z,33.00
2022-08-02T16:04:16.159Z,33.00
2022-08-02T16:06:43.745Z,33.30
2022-08-02T16:09:10.851Z,33.10
2022-08-02T16:11:37.787Z,33.20
2022-08-02T16:14:04.794Z,33.20
2022-08-02T16:16:34.514Z,32.70
2022-08-02T16:19:46.623Z,32.80
2022-08-02T16:21:50.654Z,33.00
2022-08-02T16:24:17.816Z,32.90
2022-08-02T16:26:44.694Z,32.50
2022-08-02T16:29:11.694Z,32.30
2022-08-02T16:31:42.449Z,32.10
2022-08-02T16:34:10.606Z,32.40
2022-08-02T16:36:37.977Z,32.30
2022-08-02T16:39:05.630Z,32.40
2022-08-02T16:41:50.603Z,32.80
2022-08-02T16:44:27.659Z,32.60
2022-08-02T16:47:01.451Z,32.20
2022-08-02T16:50:06.752Z,31.80
2022-08-02T16:52:19.188Z,31.60
2022-08-02T16:54:49.845Z,31.20
2022-08-02T16:57:19.887Z,31.30
2022-08-02T16:59:58.231Z,31.40
2022-08-02T17:02:26.838Z,31.40
2022-08-02T17:04:55.199Z,31.20
2022-08-02T17:08:06.019Z,31.00
2022-08-02T17:10:09.916Z,31.00
2022-08-02T17:12:38.239Z,30.90
2022-08-02T17:15:47.016Z,30.90
2022-08-02T17:17:53.915Z,30.80
2022-08-02T17:20:20.827Z,30.70
2022-08-02T17:22:47.962Z,30.40
2022-08-02T17:25:17.662Z,29.90
2022-08-02T17:27:45.404Z,29.80
2022-08-02T17:30:13.571Z,29.90
2022-08-02T17:32:45.380Z,29.90
2022-08-02T17:35:15.435Z,29.70
2022-08-02T17:37:43.400Z,30.00
2022-08-02T17:40:23.854Z,29.90
2022-08-02T17:42:50.805Z,29.70
2022-08-02T17:45:25.925Z,29.40
2022-08-02T17:48:05.655Z,29.40
2022-08-02T17:50:34.187Z,29.30
2022-08-02T17:53:01.806Z,29.00
2022-08-02T17:55:30.965Z,29.10
2022-08-02T17:57:59.463Z,29.10
2022-08-02T18:00:37.879Z,29.20
2022-08-02T18:03:09.938Z,29.00
2022-08-02T18:05:40.294Z,28.80
2022-08-02T18:08:21.197Z,29.00
2022-08-02T18:10:48.546Z,28.70
2022-08-02T18:13:15.399Z,28.70
2022-08-02T18:15:45.487Z,28.70
2022-08-02T18:18:14.611Z,28.70
2022-08-02T18:20:42.224Z,28.80
2022-08-02T18:23:10.934Z,28.50
2022-08-02T18:25:44.087Z,28.50
2022-08-02T18:28:15.119Z,28.50
2022-08-02T18:30:42.762Z,28.30
2022-08-02T18:33:58.682Z,28.20
2022-08-02T18:35:56.558Z,27.90
2022-08-02T18:38:28.483Z,27.80
2022-08-02T18:40:55.713Z,27.90
2022-08-02T18:43:25.327Z,27.80
2022-08-02T18:46:07.361Z,27.80
2022-08-02T18:48:46.274Z,27.90
2022-08-02T18:51:14.049Z,28.00
2022-08-02T18:53:42.469Z,27.80
2022-08-02T18:56:20.485Z,27.70
2022-08-02T18:58:56.000Z,27.50
2022-08-02T19:01:33.718Z,27.50
2022-08-02T19:04:04.485Z,27.50
2022-08-02T19:06:32.108Z,27.50
2022-08-02T19:09:11.454Z,27.40
2022-08-02T19:11:47.185Z,27.30
2022-08-02T19:14:19.181Z,27.30
2022-08-02T19:16:54.494Z,27.10
2022-08-02T19:19:22.241Z,27.20
2022-08-02T19:22:17.711Z,27.20
2022-08-02T19:24:37.735Z,27.10
2022-08-02T19:27:13.537Z,27.10
2022-08-02T19:29:42.883Z,27.00
2022-08-02T19:32:39.846Z,27.10
2022-08-02T19:35:19.139Z,27.10
2022-08-02T19:40:42.964Z,27.00
2022-08-02T19:44:24.872Z,26.90
2022-08-02T19:46:01.290Z,26.80
2022-08-02T19:51:15.277Z,26.90
2022-08-02T19:53:48.861Z,26.80
2022-08-02T19:56:21.145Z,26.70
2022-08-02T19:58:53.737Z,26.70
2022-08-02T20:01:28.154Z,26.60
2022-08-02T20:04:04.958Z,26.60
2022-08-02T20:06:31.849Z,26.50
2022-08-02T20:09:01.395Z,26.30
2022-08-02T20:11:34.741Z,26.40
2022-08-02T20:14:04.312Z,26.40
2022-08-02T20:19:18.961Z,26.10
2022-08-02T20:21:54.313Z,26.00
2022-08-02T20:24:26.708Z,26.00
2022-08-02T20:26:53.941Z,25.90
2022-08-02T20:29:43.933Z,25.80
2022-08-02T20:32:08.110Z,25.90
2022-08-02T20:34:36.383Z,25.80
2022-08-02T20:38:01.381Z,25.50
2022-08-02T20:39:51.619Z,25.60
2022-08-02T20:42:23.264Z,25.40
2022-08-02T20:44:55.252Z,25.00
2022-08-02T20:47:27.637Z,25.20
2022-08-02T20:50:30.461Z,25.10
2022-08-02T20:53:00.581Z,24.90
2022-08-02T20:55:30.805Z,25.00
2022-08-02T20:58:03.022Z,24.70
2022-08-02T21:00:31.760Z,24.60
2022-08-02T21:03:00.281Z,24.80
2022-08-02T21:05:43.951Z,24.60
2022-08-02T21:08:15.341Z,24.60
2022-08-02T21:10:52.045Z,24.70
2022-08-02T21:13:23.082Z,24.70
2022-08-02T21:15:51.959Z,24.80
2022-08-02T21:18:22.955Z,24.70
2022-08-02T21:20:59.420Z,24.60
2022-08-02T21:23:29.250Z,24.60
2022-08-02T21:25:58.064Z,24.50
2022-08-02T21:28:35.093Z,24.50
2022-08-02T21:31:13.509Z,24.40
2022-08-02T21:33:56.987Z,24.40
2022-08-02T21:36:32.218Z,24.40
2022-08-02T21:39:04.466Z,24.30
2022-08-02T21:41:39.821Z,24.20
2022-08-02T21:44:18.174Z,24.20
2022-08-02T21:46:46.775Z,24.10
2022-08-02T21:49:17.576Z,24.00
2022-08-02T21:51:49.297Z,24.20
2022-08-02T21:54:20.249Z,24.00
2022-08-02T21:56:52.179Z,23.80
2022-08-02T21:59:26.265Z,23.90
2022-08-02T22:01:56.531Z,23.80
2022-08-02T22:04:25.731Z,23.90
2022-08-02T22:06:55.047Z,23.90
2022-08-02T22:09:44.175Z,23.90
2022-08-02T22:12:12.591Z,23.90
2022-08-02T22:14:43.503Z,23.80
2022-08-02T22:17:17.124Z,23.70
2022-08-02T22:19:53.971Z,23.60
2022-08-02T22:22:28.293Z,23.70
2022-08-02T22:24:56.728Z,23.70
2022-08-02T22:28:15.898Z,23.60
2022-08-02T22:30:11.915Z,23.60
2022-08-02T22:32:57.852Z,23.50
2022-08-02T22:35:24.900Z,23.60
2022-08-02T22:38:16.903Z,23.50
2022-08-02T22:40:39.226Z,23.50
2022-08-02T22:43:06.730Z,23.50
2022-08-02T22:45:37.725Z,23.60
2022-08-02T22:48:05.745Z,23.50
2022-08-02T22:50:33.471Z,23.30
2022-08-02T22:53:03.015Z,23.40
2022-08-02T22:55:32.196Z,23.30
2022-08-02T22:57:59.803Z,23.20
2022-08-02T22:58:52.549Z,27.10
2022-08-02T22:59:06.461Z,26.20
2022-08-02T22:59:07.583Z,26.80
2022-08-02T23:00:26.959Z,23.20
2022-08-02T23:02:54.090Z,23.20
2022-08-02T23:05:21.767Z,23.20
2022-08-02T23:07:48.677Z,23.10
2022-08-02T23:10:15.747Z,23.10
2022-08-02T23:12:42.576Z,23.30
2022-08-02T23:15:10.333Z,23.40
2022-08-02T23:17:55.701Z,23.30
2022-08-02T23:20:22.829Z,23.30
2022-08-02T23:22:49.894Z,23.00
2022-08-02T23:25:17.062Z,23.10
2022-08-02T23:27:50.770Z,23.10
2022-08-02T23:30:18.894Z,23.30
2022-08-02T23:32:47.012Z,23.00
2022-08-02T23:35:16.938Z,22.80
2022-08-02T23:38:00.487Z,22.80
2022-08-02T23:40:40.196Z,22.70
2022-08-02T23:43:14.230Z,22.80
2022-08-02T23:45:46.266Z,22.70
2022-08-02T23:48:13.532Z,22.70
2022-08-02T23:50:40.349Z,22.70
2022-08-02T23:53:07.155Z,22.70
2022-08-02T23:55:33.956Z,22.60
2022-08-02T23:58:01.043Z,22.30
